Airfield :







YOU CAN JOIN US ON...

 
LOGIN :

Register | Disclaimer

   EN    FR    IT 

 









Legend :    VFR   Marginal VFR   IFR   Intensive IFR   Very Intensive IFR
Visi :
Ceiling :
>= 8 km
>= 3000ft
5 to 8 km
1000 to 3000 ft
1500m to 5 km
500 to 1000 ft
800 to 1500m
200 to 500 ft
< 800m
< 200 ft
Symbols :   Thunderstorms  Fog  Heavy snow  Heavy precipitations  Wind > 20 kt






- Airport Elevation : 654 ft


KAQW - Harriman and West

CURRENT METAR :
  • 240352Z AUTO 00000KT 10SM CLR 03/01 A3013 RMK AO2 SLP206 T00280011

EXPIRED METARs :
  • 240252Z AUTO 00000KT 10SM CLR 04/02 A3012 RMK AO2 SLP202 T00390017 53027
  • 240152Z AUTO 00000KT 10SM CLR 04/03 A3009 RMK AO2 SLP193 T00440028

TAF N/A



MET'MAP, your aeronautical weather chart ! - Copyright ORBIFLY December 2007 - Disclaimer

ORBIFLY MET'MAP TEAM :

Programming & Development : Alexandra Zaïnal
Concept & Development : Baudouin d'Aumeries
Co-Development & Prog : Marc-Olivier Méhu
Technical & hardware support : Manuel Goepfert

Contact : metmap@orbifly.com




SOURCES & CREDITS :

   NOAA